Alum Bridge, WV

2:48 PM EDT on September 01, 2014 (GMT -0400)
Quirky Towers, Vadis | Change Station
CLOSE
Current Station
Personal Weather Station
Location: Alum Bridge, WV
Elevation: 837 ft
Nearby Weather Stations

Elev 837 ft 39.04 °N, 80.71 °W | Updated 27 seconds ago

Mostly Cloudy
Mostly Cloudy
92.8 °F
Feels Like 100 °F
N
5.4
Wind Variable Wind from WNW
Gusts 5.4 mph

Today
High -- | Low -- °F
--% Chance of Precip.
Yesterday
High -- | Low -- °F
Precip. -- in
6:51 AM 7:53 PM
Waxing Crescent, 43% visible
Pressure 30.07 in
Visibility 10.0 miles
Clouds Few 2600 ft
Few 3200 ft
Scattered Clouds 6000 ft
Heat Index 100 °F
Dew Point 72 °F
Humidity 50%
Rainfall 0.00 in
Snow Depth Not available.
UV 7 out of 12
Pollen 7.60 out of 12
Air Quality Not available.
Flu Activity Not available.
METAR KW22 011835Z AUTO 23008G13KT 10SM FEW026 FEW032 SCT060 27/21 A3007 RMK AO2

More Conditions Fewer Conditions

Pressure 30.07 in
Visibility 10.0 miles
Clouds Few 2600 ft
Few 3200 ft
Scattered Clouds 6000 ft
Heat Index 100 °F
Dew Point 72 °F
Humidity 50%
Rainfall 0.00 in
Snow Depth Not available.
UV 7 out of 12
Pollen 7.60 out of 12
Air Quality Not available.
Flu Activity Not available.
METAR KW22 011835Z AUTO 23008G13KT 10SM FEW026 FEW032 SCT060 27/21 A3007 RMK AO2

More Conditions Fewer Conditions

10-Day Weather Forecast

Almanac

Astronomy

Sep. 01, 2014 Rise Set
Actual Time 6:51 AM EDT 7:53 PM EDT
Civil Twilight 6:24 AM EDT 8:20 PM EDT
Nautical Twilight 5:51 AM EDT 8:53 PM EDT
Astronomical Twilight 5:17 AM EDT 9:26 PM EDT
Moon 1:32 PM EDT 11:56 PM EDT
Length of Visible Light 13h 56m
Length of Day
13h 01m
Tomorrow will be 2m 27s shorter.
Waxing Crescent, 43% of the Moon is Illuminated
Today
Waxing Crescent
Sep 2
First Quarter
Sep 8
Full
Sep 15
Last Quarter
Sep 24
New

Today's Extremes

State Highs State Lows

Community

WunderPhotos

Upload Photos

1,749,359 photos uploaded!

Nearby

Snow Depth

Station Depth Elevation
No new snow has been reported.

Earthquake Activity

City Distance Mag. Time & Date
No recent earthquake activity has been reported nearby.
Minimum magnitude displayed is 2.5.

Coastal Water Temperatures

Place Temperature
No Stations Reporting

Nearby Weather Stations